sensor_id;sensor_type;location;lat;lon;timestamp;pressure;altitude;pressure_sealevel;temperature;humidity
69574;BME280;62840;52.366;5.980;2023-02-16T00:00:47;102266.41;;;5.84;70.31
69574;BME280;62840;52.366;5.980;2023-02-16T00:03:15;102261.09;;;5.84;70.23
69574;BME280;62840;52.366;5.980;2023-02-16T00:05:45;102264.78;;;5.80;70.28
69574;BME280;62840;52.366;5.980;2023-02-16T00:08:11;102263.06;;;5.79;70.09
69574;BME280;62840;52.366;5.980;2023-02-16T00:10:38;102259.63;;;5.77;70.30
69574;BME280;62840;52.366;5.980;2023-02-16T00:13:26;102261.38;;;5.78;70.22
69574;BME280;62840;52.366;5.980;2023-02-16T00:15:53;102265.78;;;5.77;70.33
69574;BME280;62840;52.366;5.980;2023-02-16T00:18:20;102263.06;;;5.79;70.27
69574;BME280;62840;52.366;5.980;2023-02-16T00:20:49;102261.38;;;5.78;70.22
69574;BME280;62840;52.366;5.980;2023-02-16T00:23:15;102257.91;;;5.76;70.68
69574;BME280;62840;52.366;5.980;2023-02-16T00:25:41;102258.03;;;5.73;70.44
69574;BME280;62840;52.366;5.980;2023-02-16T00:28:11;102260.78;;;5.70;70.32
69574;BME280;62840;52.366;5.980;2023-02-16T00:30:40;102254.69;;;5.67;70.45
69574;BME280;62840;52.366;5.980;2023-02-16T00:33:13;102264.44;;;5.67;70.62
69574;BME280;62840;52.366;5.980;2023-02-16T00:35:40;102255.63;;;5.66;70.38
69574;BME280;62840;52.366;5.980;2023-02-16T00:38:08;102250.25;;;5.68;70.54
69574;BME280;62840;52.366;5.980;2023-02-16T00:40:34;102245.09;;;5.65;70.29
69574;BME280;62840;52.366;5.980;2023-02-16T00:43:00;102248.59;;;5.65;70.38
69574;BME280;62840;52.366;5.980;2023-02-16T00:45:26;102258.38;;;5.63;70.42
69574;BME280;62840;52.366;5.980;2023-02-16T00:47:53;102251.38;;;5.62;70.48
69574;BME280;62840;52.366;5.980;2023-02-16T00:50:22;102249.78;;;5.58;70.49
69574;BME280;62840;52.366;5.980;2023-02-16T00:52:52;102250.69;;;5.57;70.66
69574;BME280;62840;52.366;5.980;2023-02-16T00:55:23;102251.63;;;5.56;70.67
69574;BME280;62840;52.366;5.980;2023-02-16T00:57:53;102246.19;;;5.59;70.46
69574;BME280;62840;52.366;5.980;2023-02-16T01:00:23;102247.94;;;5.60;70.67
69574;BME280;62840;52.366;5.980;2023-02-16T01:02:54;102249.63;;;5.61;70.78
69574;BME280;62840;52.366;5.980;2023-02-16T01:05:22;102246.19;;;5.59;70.69
69574;BME280;62840;52.366;5.980;2023-02-16T01:07:47;102243.53;;;5.59;70.59
69574;BME280;62840;52.366;5.980;2023-02-16T01:10:13;102241.78;;;5.60;70.78
69574;BME280;62840;52.366;5.980;2023-02-16T01:12:43;102246.09;;;5.62;70.54
69574;BME280;62840;52.366;5.980;2023-02-16T01:15:12;102242.50;;;5.63;70.47
69574;BME280;62840;52.366;5.980;2023-02-16T01:17:39;102247.00;;;5.61;70.55
69574;BME280;62840;52.366;5.980;2023-02-16T01:20:13;102244.34;;;5.61;70.51
69574;BME280;62840;52.366;5.980;2023-02-16T01:22:40;102236.50;;;5.60;70.61
69574;BME280;62840;52.366;5.980;2023-02-16T01:25:06;102245.28;;;5.60;70.73
69574;BME280;62840;52.366;5.980;2023-02-16T01:27:32;102242.63;;;5.60;70.53
69574;BME280;62840;52.366;5.980;2023-02-16T01:30:04;102245.28;;;5.60;70.68
69574;BME280;62840;52.366;5.980;2023-02-16T01:32:32;102245.16;;;5.63;70.61
69574;BME280;62840;52.366;5.980;2023-02-16T01:34:58;102231.81;;;5.66;70.43
69574;BME280;62840;52.366;5.980;2023-02-16T01:37:24;102229.94;;;5.68;70.43
69574;BME280;62840;52.366;5.980;2023-02-16T01:39:50;102229.94;;;5.68;70.53
69574;BME280;62840;52.366;5.980;2023-02-16T01:42:26;102227.38;;;5.67;70.50
69574;BME280;62840;52.366;5.980;2023-02-16T01:45:04;102227.44;;;5.65;70.53
69574;BME280;62840;52.366;5.980;2023-02-16T01:47:39;102233.66;;;5.64;70.56
69574;BME280;62840;52.366;5.980;2023-02-16T01:50:16;102225.72;;;5.64;70.60
69574;BME280;62840;52.366;5.980;2023-02-16T01:52:51;102222.19;;;5.64;70.61
69574;BME280;62840;52.366;5.980;2023-02-16T01:55:24;102215.19;;;5.63;70.33
69574;BME280;62840;52.366;5.980;2023-02-16T01:57:56;102214.38;;;5.61;70.70
69574;BME280;62840;52.366;5.980;2023-02-16T02:01:15;102210.13;;;5.57;70.53
69574;BME280;62840;52.366;5.980;2023-02-16T02:03:33;102209.41;;;5.53;70.71
69574;BME280;62840;52.366;5.980;2023-02-16T02:05:59;102204.22;;;5.50;70.75
69574;BME280;62840;52.366;5.980;2023-02-16T02:08:31;102205.16;;;5.49;70.68
69574;BME280;62840;52.366;5.980;2023-02-16T02:11:08;102207.78;;;5.49;71.00
69574;BME280;62840;52.366;5.980;2023-02-16T02:13:43;102207.91;;;5.46;70.88
69574;BME280;62840;52.366;5.980;2023-02-16T02:16:19;102207.91;;;5.46;70.82
69574;BME280;62840;52.366;5.980;2023-02-16T02:18:46;102207.00;;;5.47;70.92
69574;BME280;62840;52.366;5.980;2023-02-16T02:21:27;102199.06;;;5.47;70.87
69574;BME280;62840;52.366;5.980;2023-02-16T02:27:40;102203.50;;;5.46;70.79
69574;BME280;62840;52.366;5.980;2023-02-16T02:30:20;102199.00;;;5.49;70.65
69574;BME280;62840;52.366;5.980;2023-02-16T02:36:11;102192.91;;;5.46;70.84
69574;BME280;62840;52.366;5.980;2023-02-16T02:38:52;102187.66;;;5.45;70.78
69574;BME280;62840;52.366;5.980;2023-02-16T02:41:31;102188.59;;;5.44;70.79
69574;BME280;62840;52.366;5.980;2023-02-16T02:44:07;102185.03;;;5.45;70.75
69574;BME280;62840;52.366;5.980;2023-02-16T02:46:35;102178.03;;;5.44;70.89
69574;BME280;62840;52.366;5.980;2023-02-16T02:49:02;102179.72;;;5.45;70.78
69574;BME280;62840;52.366;5.980;2023-02-16T02:51:28;102172.72;;;5.44;70.84
69574;BME280;62840;52.366;5.980;2023-02-16T02:53:57;102180.66;;;5.44;70.89
69574;BME280;62840;52.366;5.980;2023-02-16T02:56:26;102179.72;;;5.45;71.15
69574;BME280;62840;52.366;5.980;2023-02-16T02:58:55;102174.31;;;5.48;71.10
69574;BME280;62840;52.366;5.980;2023-02-16T03:01:30;102167.16;;;5.50;71.17
69574;BME280;62840;52.366;5.980;2023-02-16T03:04:00;102173.22;;;5.54;71.12
69574;BME280;62840;52.366;5.980;2023-02-16T03:06:32;102162.50;;;5.57;71.20
69574;BME280;62840;52.366;5.980;2023-02-16T03:09:04;102156.22;;;5.59;71.18
69574;BME280;62840;52.366;5.980;2023-02-16T03:11:32;102156.09;;;5.62;71.15
69574;BME280;62840;52.366;5.980;2023-02-16T03:14:00;102149.78;;;5.66;71.17
69574;BME280;62840;52.366;5.980;2023-02-16T03:16:35;102152.28;;;5.70;71.11
69574;BME280;62840;52.366;5.980;2023-02-16T03:19:06;102147.69;;;5.73;71.09
69574;BME280;62840;52.366;5.980;2023-02-16T03:21:35;102156.38;;;5.77;71.11
69574;BME280;62840;52.366;5.980;2023-02-16T03:24:04;102151.91;;;5.79;71.05
69574;BME280;62840;52.366;5.980;2023-02-16T03:26:33;102150.97;;;5.80;71.04
69574;BME280;62840;52.366;5.980;2023-02-16T03:29:01;102144.75;;;5.81;71.09
69574;BME280;62840;52.366;5.980;2023-02-16T03:31:33;102144.75;;;5.81;70.96
69574;BME280;62840;52.366;5.980;2023-02-16T03:34:02;102150.75;;;5.84;71.03
69574;BME280;62840;52.366;5.980;2023-02-16T03:36:32;102149.00;;;5.85;71.09
69574;BME280;62840;52.366;5.980;2023-02-16T03:39:00;102149.00;;;5.85;71.13
69574;BME280;62840;52.366;5.980;2023-02-16T03:41:32;102144.50;;;5.87;70.94
69574;BME280;62840;52.366;5.980;2023-02-16T03:43:59;102157.66;;;5.88;71.12
69574;BME280;62840;52.366;5.980;2023-02-16T03:46:25;102154.97;;;5.90;70.95
69574;BME280;62840;52.366;5.980;2023-02-16T03:48:53;102141.56;;;5.93;70.85
69574;BME280;62840;52.366;5.980;2023-02-16T03:51:19;102141.56;;;5.93;71.06
69574;BME280;62840;52.366;5.980;2023-02-16T03:53:45;102159.13;;;5.96;70.79
69574;BME280;62840;52.366;5.980;2023-02-16T03:56:11;102153.75;;;5.97;71.02
69574;BME280;62840;52.366;5.980;2023-02-16T03:58:36;102147.56;;;5.98;71.13
69574;BME280;62840;52.366;5.980;2023-02-16T04:01:02;102147.41;;;6.01;70.95
69574;BME280;62840;52.366;5.980;2023-02-16T04:03:28;102140.28;;;6.03;71.07
69574;BME280;62840;52.366;5.980;2023-02-16T04:05:57;102148.88;;;6.08;70.84
69574;BME280;62840;52.366;5.980;2023-02-16T04:08:22;102140.03;;;6.09;70.75
69574;BME280;62840;52.366;5.980;2023-02-16T04:10:48;102145.19;;;6.13;70.89
69574;BME280;62840;52.366;5.980;2023-02-16T04:13:14;102152.97;;;6.16;70.89
69574;BME280;62840;52.366;5.980;2023-02-16T04:15:39;102146.78;;;6.17;70.95
69574;BME280;62840;52.366;5.980;2023-02-16T04:18:05;102151.91;;;6.20;70.86
69574;BME280;62840;52.366;5.980;2023-02-16T04:20:33;102141.31;;;6.20;70.70
69574;BME280;62840;52.366;5.980;2023-02-16T04:23:02;102136.03;;;6.20;70.73
69574;BME280;62840;52.366;5.980;2023-02-16T04:25:28;102138.63;;;6.21;70.88
69574;BME280;62840;52.366;5.980;2023-02-16T04:27:55;102144.63;;;6.25;70.98
69574;BME280;62840;52.366;5.980;2023-02-16T04:30:22;102145.44;;;6.27;70.85
69574;BME280;62840;52.366;5.980;2023-02-16T04:32:50;102146.22;;;6.29;70.83
69574;BME280;62840;52.366;5.980;2023-02-16T04:35:16;102144.38;;;6.31;70.77
69574;BME280;62840;52.366;5.980;2023-02-16T04:37:43;102149.56;;;6.34;70.64
69574;BME280;62840;52.366;5.980;2023-02-16T04:40:13;102150.31;;;6.36;70.88
69574;BME280;62840;52.366;5.980;2023-02-16T04:42:42;102152.84;;;6.39;70.63
69574;BME280;62840;52.366;5.980;2023-02-16T04:45:09;102155.44;;;6.41;70.75
69574;BME280;62840;52.366;5.980;2023-02-16T04:47:36;102151.78;;;6.43;70.97
69574;BME280;62840;52.366;5.980;2023-02-16T04:50:03;102150.84;;;6.44;70.65
69574;BME280;62840;52.366;5.980;2023-02-16T04:52:29;102155.16;;;6.47;70.74
69574;BME280;62840;52.366;5.980;2023-02-16T04:54:55;102147.94;;;6.50;70.53
69574;BME280;62840;52.366;5.980;2023-02-16T04:57:23;102139.84;;;6.54;70.53
69574;BME280;62840;52.366;5.980;2023-02-16T04:59:50;102145.03;;;6.57;70.56
69574;BME280;62840;52.366;5.980;2023-02-16T05:02:15;102137.84;;;6.59;70.34
69574;BME280;62840;52.366;5.980;2023-02-16T05:04:41;102145.59;;;6.63;70.45
69574;BME280;62840;52.366;5.980;2023-02-16T05:07:07;102136.72;;;6.64;70.16
69574;BME280;62840;52.366;5.980;2023-02-16T05:09:33;102135.72;;;6.67;70.02
69574;BME280;62840;52.366;5.980;2023-02-16T05:11:58;102135.56;;;6.70;70.15
69574;BME280;62840;52.366;5.980;2023-02-16T05:14:28;102132.78;;;6.73;70.01
69574;BME280;62840;52.366;5.980;2023-02-16T05:16:55;102128.28;;;6.75;70.05
69574;BME280;62840;52.366;5.980;2023-02-16T05:19:21;102131.72;;;6.77;69.94
69574;BME280;62840;52.366;5.980;2023-02-16T05:21:46;102139.59;;;6.79;70.05
69574;BME280;62840;52.366;5.980;2023-02-16T05:24:12;102137.72;;;6.81;69.83
69574;BME280;62840;52.366;5.980;2023-02-16T05:26:38;102138.56;;;6.81;69.85
69574;BME280;62840;52.366;5.980;2023-02-16T05:29:05;102134.00;;;6.85;69.62
69574;BME280;62840;52.366;5.980;2023-02-16T05:31:33;102133.00;;;6.87;70.07
69574;BME280;62840;52.366;5.980;2023-02-16T05:33:59;102134.75;;;6.88;69.92
69574;BME280;62840;52.366;5.980;2023-02-16T05:36:25;102133.72;;;6.91;69.72
69574;BME280;62840;52.366;5.980;2023-02-16T05:38:50;102121.31;;;6.91;69.89
69574;BME280;62840;52.366;5.980;2023-02-16T05:41:16;102123.97;;;6.91;69.70
69574;BME280;62840;52.366;5.980;2023-02-16T05:43:42;102121.31;;;6.91;69.85
69574;BME280;62840;52.366;5.980;2023-02-16T05:46:08;102116.97;;;6.90;69.91
69574;BME280;62840;52.366;5.980;2023-02-16T05:48:36;102120.41;;;6.92;69.81
69574;BME280;62840;52.366;5.980;2023-02-16T05:51:02;102121.25;;;6.93;70.06
69574;BME280;62840;52.366;5.980;2023-02-16T05:53:29;102126.56;;;6.93;69.97
69574;BME280;62840;52.366;5.980;2023-02-16T05:55:54;102116.81;;;6.93;69.84
69574;BME280;62840;52.366;5.980;2023-02-16T05:58:20;102113.22;;;6.95;69.97
69574;BME280;62840;52.366;5.980;2023-02-16T06:00:46;102114.09;;;6.95;70.09
69574;BME280;62840;52.366;5.980;2023-02-16T06:03:11;102114.94;;;6.96;70.09
69574;BME280;62840;52.366;5.980;2023-02-16T06:05:40;102110.56;;;6.95;69.97
69574;BME280;62840;52.366;5.980;2023-02-16T06:08:06;102098.19;;;6.95;70.03
69574;BME280;62840;52.366;5.980;2023-02-16T06:10:31;102108.69;;;6.97;69.90
69574;BME280;62840;52.366;5.980;2023-02-16T06:12:57;102118.44;;;6.96;69.93
69574;BME280;62840;52.366;5.980;2023-02-16T06:15:23;102117.44;;;6.99;69.94
69574;BME280;62840;52.366;5.980;2023-02-16T06:17:48;102119.19;;;7.00;69.96
69574;BME280;62840;52.366;5.980;2023-02-16T06:20:14;102128.84;;;7.01;69.77
69574;BME280;62840;52.366;5.980;2023-02-16T06:22:43;102125.28;;;7.02;69.98
69574;BME280;62840;52.366;5.980;2023-02-16T06:25:08;102135.00;;;7.01;69.84
69574;BME280;62840;52.366;5.980;2023-02-16T06:27:34;102128.84;;;7.01;70.00
69574;BME280;62840;52.366;5.980;2023-02-16T06:30:00;102141.19;;;7.02;69.96
69574;BME280;62840;52.366;5.980;2023-02-16T06:32:26;102142.97;;;7.01;70.05
69574;BME280;62840;52.366;5.980;2023-02-16T06:34:52;102150.91;;;7.01;69.79
69574;BME280;62840;52.366;5.980;2023-02-16T06:37:18;102143.97;;;6.99;69.87
69574;BME280;62840;52.366;5.980;2023-02-16T06:39:46;102152.72;;;7.01;69.90
69574;BME280;62840;52.366;5.980;2023-02-16T06:42:12;102147.34;;;7.02;69.93
69574;BME280;62840;52.366;5.980;2023-02-16T06:44:37;102137.59;;;7.03;69.83
69574;BME280;62840;52.366;5.980;2023-02-16T06:47:03;102147.28;;;7.04;69.65
69574;BME280;62840;52.366;5.980;2023-02-16T06:49:29;102152.44;;;7.07;69.69
69574;BME280;62840;52.366;5.980;2023-02-16T06:51:55;102149.78;;;7.07;69.76
69574;BME280;62840;52.366;5.980;2023-02-16T06:54:21;102151.50;;;7.08;69.76
69574;BME280;62840;52.366;5.980;2023-02-16T06:56:49;102144.47;;;7.07;69.72
69574;BME280;62840;52.366;5.980;2023-02-16T06:59:15;102139.19;;;7.07;69.86
69574;BME280;62840;52.366;5.980;2023-02-16T07:01:40;102142.69;;;7.07;69.91
69574;BME280;62840;52.366;5.980;2023-02-16T07:04:06;102147.94;;;7.09;69.78
69574;BME280;62840;52.366;5.980;2023-02-16T07:06:33;102147.13;;;7.07;69.90
69574;BME280;62840;52.366;5.980;2023-02-16T07:08:59;102152.38;;;7.08;69.93
69574;BME280;62840;52.366;5.980;2023-02-16T07:11:25;102146.19;;;7.08;69.91
69574;BME280;62840;52.366;5.980;2023-02-16T07:13:53;102142.63;;;7.09;69.75
69574;BME280;62840;52.366;5.980;2023-02-16T07:16:19;102140.88;;;7.08;69.68
69574;BME280;62840;52.366;5.980;2023-02-16T07:18:45;102151.38;;;7.11;69.85
69574;BME280;62840;52.366;5.980;2023-02-16T07:21:11;102148.63;;;7.12;69.77
69574;BME280;62840;52.366;5.980;2023-02-16T07:23:36;102145.91;;;7.14;69.66
69574;BME280;62840;52.366;5.980;2023-02-16T07:26:02;102145.84;;;7.16;69.77
69574;BME280;62840;52.366;5.980;2023-02-16T07:28:28;102147.47;;;7.18;69.74
69574;BME280;62840;52.366;5.980;2023-02-16T07:30:57;102152.72;;;7.20;69.84
69574;BME280;62840;52.366;5.980;2023-02-16T07:33:23;102146.47;;;7.21;69.74
69574;BME280;62840;52.366;5.980;2023-02-16T07:35:48;102147.19;;;7.24;69.72
69574;BME280;62840;52.366;5.980;2023-02-16T07:38:14;102159.38;;;7.28;69.56
69574;BME280;62840;52.366;5.980;2023-02-16T07:40:40;102157.50;;;7.30;69.64
69574;BME280;62840;52.366;5.980;2023-02-16T07:43:06;102153.94;;;7.31;69.52
69574;BME280;62840;52.366;5.980;2023-02-16T07:45:32;102170.53;;;7.35;69.59
69574;BME280;62840;52.366;5.980;2023-02-16T07:48:01;102166.97;;;7.36;69.46
69574;BME280;62840;52.366;5.980;2023-02-16T07:50:27;102165.13;;;7.38;69.40
69574;BME280;62840;52.366;5.980;2023-02-16T07:52:53;102172.97;;;7.40;69.34
69574;BME280;62840;52.366;5.980;2023-02-16T07:55:19;102171.16;;;7.42;69.42
69574;BME280;62840;52.366;5.980;2023-02-16T07:57:44;102178.19;;;7.43;69.23
69574;BME280;62840;52.366;5.980;2023-02-16T08:00:11;102178.19;;;7.43;69.36
69574;BME280;62840;52.366;5.980;2023-02-16T08:02:39;102170.13;;;7.44;69.39
69574;BME280;62840;52.366;5.980;2023-02-16T08:05:07;102170.88;;;7.48;69.32
69574;BME280;62840;52.366;5.980;2023-02-16T08:07:33;102169.00;;;7.50;69.22
69574;BME280;62840;52.366;5.980;2023-02-16T08:09:58;102167.13;;;7.52;69.45
69574;BME280;62840;52.366;5.980;2023-02-16T08:12:24;102170.56;;;7.54;69.34
69574;BME280;62840;52.366;5.980;2023-02-16T08:14:50;102179.16;;;7.59;69.21
69574;BME280;62840;52.366;5.980;2023-02-16T08:17:16;102180.91;;;7.60;69.14
69574;BME280;62840;52.366;5.980;2023-02-16T08:19:41;102178.09;;;7.63;69.26
69574;BME280;62840;52.366;5.980;2023-02-16T08:22:10;102177.13;;;7.64;69.30
69574;BME280;62840;52.366;5.980;2023-02-16T08:24:35;102185.91;;;7.66;69.28
69574;BME280;62840;52.366;5.980;2023-02-16T08:27:02;102177.88;;;7.68;69.24
69574;BME280;62840;52.366;5.980;2023-02-16T08:29:30;102189.34;;;7.68;68.98
69574;BME280;62840;52.366;5.980;2023-02-16T08:31:56;102176.00;;;7.70;69.08
69574;BME280;62840;52.366;5.980;2023-02-16T08:34:23;102189.97;;;7.73;69.23
69574;BME280;62840;52.366;5.980;2023-02-16T08:36:52;102187.31;;;7.73;69.21
69574;BME280;62840;52.366;5.980;2023-02-16T08:39:23;102202.25;;;7.76;69.21
69574;BME280;62840;52.366;5.980;2023-02-16T08:41:50;102196.94;;;7.76;69.33
69574;BME280;62840;52.366;5.980;2023-02-16T08:44:18;102190.63;;;7.79;69.12
69574;BME280;62840;52.366;5.980;2023-02-16T08:46:46;102196.78;;;7.79;69.18
69574;BME280;62840;52.366;5.980;2023-02-16T08:49:14;102192.31;;;7.80;69.19
69574;BME280;62840;52.366;5.980;2023-02-16T08:51:42;102189.66;;;7.80;69.18
69574;BME280;62840;52.366;5.980;2023-02-16T08:54:14;102194.06;;;7.81;69.29
69574;BME280;62840;52.366;5.980;2023-02-16T08:56:43;102193.91;;;7.84;69.11
69574;BME280;62840;52.366;5.980;2023-02-16T08:59:09;102197.34;;;7.86;69.31
69574;BME280;62840;52.366;5.980;2023-02-16T09:01:35;102200.78;;;7.88;69.09
69574;BME280;62840;52.366;5.980;2023-02-16T09:04:01;102206.88;;;7.90;68.96
69574;BME280;62840;52.366;5.980;2023-02-16T09:06:27;102205.94;;;7.91;69.22
69574;BME280;62840;52.366;5.980;2023-02-16T09:08:55;102209.38;;;7.93;69.26
69574;BME280;62840;52.366;5.980;2023-02-16T09:11:22;102204.06;;;7.93;69.11
69574;BME280;62840;52.366;5.980;2023-02-16T09:13:51;102205.81;;;7.94;69.12
69574;BME280;62840;52.366;5.980;2023-02-16T09:16:20;102204.06;;;7.93;69.16
69574;BME280;62840;52.366;5.980;2023-02-16T09:18:48;102211.00;;;7.95;69.35
69574;BME280;62840;52.366;5.980;2023-02-16T09:21:18;102208.28;;;7.97;69.31
69574;BME280;62840;52.366;5.980;2023-02-16T09:23:49;102209.09;;;7.99;69.07
69574;BME280;62840;52.366;5.980;2023-02-16T09:26:17;102204.63;;;8.00;69.22
69574;BME280;62840;52.366;5.980;2023-02-16T09:28:44;102211.56;;;8.02;69.42
69574;BME280;62840;52.366;5.980;2023-02-16T09:31:15;102217.66;;;8.04;69.21
69574;BME280;62840;52.366;5.980;2023-02-16T09:33:42;102207.03;;;8.04;69.17
69574;BME280;62840;52.366;5.980;2023-02-16T09:36:10;102210.66;;;8.03;69.02
69574;BME280;62840;52.366;5.980;2023-02-16T09:38:38;102210.66;;;8.03;69.15
69574;BME280;62840;52.366;5.980;2023-02-16T09:41:05;102214.22;;;8.02;69.21
69574;BME280;62840;52.366;5.980;2023-02-16T09:43:38;102210.66;;;8.03;69.16
69574;BME280;62840;52.366;5.980;2023-02-16T09:46:14;102214.22;;;8.02;69.24
69574;BME280;62840;52.366;5.980;2023-02-16T09:48:46;102219.53;;;8.02;69.31
69574;BME280;62840;52.366;5.980;2023-02-16T09:51:17;102210.78;;;8.00;69.51
69574;BME280;62840;52.366;5.980;2023-02-16T09:53:51;102214.22;;;8.02;69.59
69574;BME280;62840;52.366;5.980;2023-02-16T09:56:27;102219.53;;;8.02;69.58
69574;BME280;62840;52.366;5.980;2023-02-16T09:59:01;102216.03;;;8.02;69.78
69574;BME280;62840;52.366;5.980;2023-02-16T10:01:41;102223.16;;;8.01;70.00
69574;BME280;62840;52.366;5.980;2023-02-16T10:04:26;102215.97;;;8.03;70.00
69574;BME280;62840;52.366;5.980;2023-02-16T10:07:05;102217.50;;;8.07;70.25
69574;BME280;62840;52.366;5.980;2023-02-16T10:09:48;102205.19;;;8.06;70.65
69574;BME280;62840;52.366;5.980;2023-02-16T10:12:21;102207.84;;;8.06;70.63
69574;BME280;62840;52.366;5.980;2023-02-16T10:14:53;102215.81;;;8.06;70.79
69574;BME280;62840;52.366;5.980;2023-02-16T10:17:31;102196.25;;;8.07;71.04
69574;BME280;62840;52.366;5.980;2023-02-16T10:20:05;102190.81;;;8.10;71.08
69574;BME280;62840;52.366;5.980;2023-02-16T10:22:40;102196.97;;;8.11;71.08
69574;BME280;62840;52.366;5.980;2023-02-16T10:25:15;102209.22;;;8.13;71.17
69574;BME280;62840;52.366;5.980;2023-02-16T10:27:49;102207.38;;;8.15;71.11
69574;BME280;62840;52.366;5.980;2023-02-16T10:30:22;102211.91;;;8.13;71.16
69574;BME280;62840;52.366;5.980;2023-02-16T10:32:55;102217.22;;;8.13;71.26
69574;BME280;62840;52.366;5.980;2023-02-16T10:35:28;102215.50;;;8.12;71.48
69574;BME280;62840;52.366;5.980;2023-02-16T10:38:11;102213.75;;;8.11;71.51
69574;BME280;62840;52.366;5.980;2023-02-16T10:40:51;102218.16;;;8.12;71.53
69574;BME280;62840;52.366;5.980;2023-02-16T10:43:24;102217.38;;;8.10;71.77
69574;BME280;62840;52.366;5.980;2023-02-16T10:46:04;102220.09;;;8.09;71.55
69574;BME280;62840;52.366;5.980;2023-02-16T10:48:32;102210.31;;;8.09;71.72
69574;BME280;62840;52.366;5.980;2023-02-16T10:51:00;102212.19;;;8.07;71.90
69574;BME280;62840;52.366;5.980;2023-02-16T10:53:35;102215.81;;;8.06;72.01
69574;BME280;62840;52.366;5.980;2023-02-16T10:59:17;102209.75;;;8.03;72.10
69574;BME280;62840;52.366;5.980;2023-02-16T11:01:47;102219.41;;;8.05;72.08
69574;BME280;62840;52.366;5.980;2023-02-16T11:04:37;102220.16;;;8.07;72.24
69574;BME280;62840;52.366;5.980;2023-02-16T11:07:06;102219.25;;;8.08;72.65
69574;BME280;62840;52.366;5.980;2023-02-16T11:09:34;102215.63;;;8.09;72.40
69574;BME280;62840;52.366;5.980;2023-02-16T11:12:01;102218.22;;;8.11;72.61
69574;BME280;62840;52.366;5.980;2023-02-16T11:14:38;102217.22;;;8.13;72.73
69574;BME280;62840;52.366;5.980;2023-02-16T11:17:12;102223.16;;;8.18;72.59
69574;BME280;62840;52.366;5.980;2023-02-16T11:19:49;102229.19;;;8.22;72.53
69574;BME280;62840;52.366;5.980;2023-02-16T11:22:27;102228.94;;;8.27;72.72
69574;BME280;62840;52.366;5.980;2023-02-16T11:24:55;102223.47;;;8.30;72.89
69574;BME280;62840;52.366;5.980;2023-02-16T11:27:28;102222.38;;;8.34;72.76
69574;BME280;62840;52.366;5.980;2023-02-16T11:30:15;102222.13;;;8.38;72.72
69574;BME280;62840;52.366;5.980;2023-02-16T11:32:43;102201.75;;;8.39;72.94
69574;BME280;62840;52.366;5.980;2023-02-16T11:35:13;102208.59;;;8.43;72.70
69574;BME280;62840;52.366;5.980;2023-02-16T11:37:39;102198.69;;;8.47;73.03
69574;BME280;62840;52.366;5.980;2023-02-16T11:40:17;102204.59;;;8.52;72.97
69574;BME280;62840;52.366;5.980;2023-02-16T11:42:48;102197.34;;;8.55;72.92
69574;BME280;62840;52.366;5.980;2023-02-16T11:45:25;102189.97;;;8.61;73.09
69574;BME280;62840;52.366;5.980;2023-02-16T11:47:54;102187.19;;;8.64;73.09
69574;BME280;62840;52.366;5.980;2023-02-16T11:50:25;102183.31;;;8.69;73.10
69574;BME280;62840;52.366;5.980;2023-02-16T11:52:54;102174.16;;;8.75;73.03
69574;BME280;62840;52.366;5.980;2023-02-16T11:55:25;102180.09;;;8.80;72.94
69574;BME280;62840;52.366;5.980;2023-02-16T11:57:53;102171.84;;;8.85;72.88
69574;BME280;62840;52.366;5.980;2023-02-16T12:00:21;102168.94;;;8.89;73.05
69574;BME280;62840;52.366;5.980;2023-02-16T12:03:08;102175.81;;;8.93;72.93
69574;BME280;62840;52.366;5.980;2023-02-16T12:05:53;102168.63;;;8.95;72.77
69574;BME280;62840;52.366;5.980;2023-02-16T12:08:44;102161.41;;;8.97;73.02
69574;BME280;62840;52.366;5.980;2023-02-16T12:11:27;102154.19;;;8.99;72.97
69574;BME280;62840;52.366;5.980;2023-02-16T12:14:18;102148.72;;;9.03;72.93
69574;BME280;62840;52.366;5.980;2023-02-16T12:16:57;102147.75;;;9.04;72.98
69574;BME280;62840;52.366;5.980;2023-02-16T12:19:37;102145.72;;;9.09;72.95
69574;BME280;62840;52.366;5.980;2023-02-16T12:22:22;102141.91;;;9.13;72.97
69574;BME280;62840;52.366;5.980;2023-02-16T12:25:18;102139.97;;;9.16;73.19
69574;BME280;62840;52.366;5.980;2023-02-16T12:27:54;102131.97;;;9.16;72.91
69574;BME280;62840;52.366;5.980;2023-02-16T12:30:37;102119.50;;;9.17;73.05
69574;BME280;62840;52.366;5.980;2023-02-16T12:33:25;102115.94;;;9.18;73.02
69574;BME280;62840;52.366;5.980;2023-02-16T12:36:10;102114.97;;;9.19;73.07
69574;BME280;62840;52.366;5.980;2023-02-16T12:39:02;102121.06;;;9.21;73.01
69574;BME280;62840;52.366;5.980;2023-02-16T12:41:46;102113.00;;;9.23;73.03
69574;BME280;62840;52.366;5.980;2023-02-16T12:44:31;102099.59;;;9.24;72.91
69574;BME280;62840;52.366;5.980;2023-02-16T12:47:04;102102.25;;;9.24;73.08
69574;BME280;62840;52.366;5.980;2023-02-16T12:49:43;102094.25;;;9.24;73.03
69574;BME280;62840;52.366;5.980;2023-02-16T12:52:26;102085.34;;;9.25;73.10
69574;BME280;62840;52.366;5.980;2023-02-16T12:55:09;102086.13;;;9.27;73.09
69574;BME280;62840;52.366;5.980;2023-02-16T12:57:48;102082.69;;;9.25;73.10
69574;BME280;62840;52.366;5.980;2023-02-16T13:00:24;102078.13;;;9.27;73.12
69574;BME280;62840;52.366;5.980;2023-02-16T13:03:03;102070.94;;;9.29;73.14
69574;BME280;62840;52.366;5.980;2023-02-16T13:05:41;102059.94;;;9.35;73.34
69574;BME280;62840;52.366;5.980;2023-02-16T13:08:16;102064.81;;;9.43;73.21
69574;BME280;62840;52.366;5.980;2023-02-16T13:10:56;102068.00;;;9.50;73.37
69574;BME280;62840;52.366;5.980;2023-02-16T13:13:31;102052.59;;;9.55;73.16
69574;BME280;62840;52.366;5.980;2023-02-16T13:16:05;102053.16;;;9.60;73.16
69574;BME280;62840;52.366;5.980;2023-02-16T13:18:36;102045.94;;;9.62;73.03
69574;BME280;62840;52.366;5.980;2023-02-16T13:21:13;102048.25;;;9.68;73.04
69574;BME280;62840;52.366;5.980;2023-02-16T13:23:58;102052.25;;;9.75;72.84
69574;BME280;62840;52.366;5.980;2023-02-16T13:26:58;102059.13;;;9.79;72.99